createdAt,value
2022-08-22T00:00:13.774Z,83.70
2022-08-22T00:02:49.029Z,82.86
2022-08-22T00:02:55.670Z,83.63
2022-08-22T00:02:59.456Z,83.78
2022-08-22T00:03:01.014Z,81.08
2022-08-22T00:03:17.310Z,83.84
2022-08-22T00:06:07.985Z,83.83
2022-08-22T00:08:50.471Z,84.00
2022-08-22T00:11:52.029Z,83.94
2022-08-22T00:14:47.969Z,83.95
2022-08-22T00:17:30.758Z,84.05
2022-08-22T00:20:34.246Z,84.10
2022-08-22T00:23:12.251Z,84.18
2022-08-22T00:26:06.261Z,84.08
2022-08-22T00:28:58.818Z,84.22
2022-08-22T00:31:47.639Z,84.27
2022-08-22T00:34:29.956Z,84.15
2022-08-22T00:37:15.138Z,84.17
2022-08-22T00:40:03.461Z,84.19
2022-08-22T00:43:08.550Z,84.24
2022-08-22T00:46:02.114Z,84.21
2022-08-22T00:48:45.810Z,84.18
2022-08-22T00:51:45.158Z,84.26
2022-08-22T00:55:05.812Z,84.27
2022-08-22T00:57:54.777Z,84.36
2022-08-22T01:00:26.834Z,84.43
2022-08-22T01:03:17.138Z,84.51
2022-08-22T01:06:04.746Z,84.58
2022-08-22T01:08:51.095Z,84.52
2022-08-22T01:12:06.726Z,84.58
2022-08-22T01:15:11.080Z,84.52
2022-08-22T01:18:06.083Z,84.78
2022-08-22T01:21:05.502Z,84.77
2022-08-22T01:23:59.352Z,84.67
2022-08-22T01:26:36.632Z,84.80
2022-08-22T01:29:53.272Z,84.82
2022-08-22T01:32:49.229Z,84.76
2022-08-22T01:35:27.649Z,84.92
2022-08-22T01:38:32.607Z,84.75
2022-08-22T01:41:17.747Z,84.63
2022-08-22T01:44:08.771Z,84.94
2022-08-22T01:47:05.064Z,84.67
2022-08-22T01:49:37.229Z,84.75
2022-08-22T01:52:34.274Z,84.67
2022-08-22T01:55:24.616Z,84.77
2022-08-22T01:58:13.207Z,84.75
2022-08-22T02:01:08.612Z,84.70
2022-08-22T02:04:16.975Z,84.73
2022-08-22T02:07:10.455Z,84.80
2022-08-22T02:10:04.030Z,84.79
2022-08-22T02:12:44.802Z,85.06
2022-08-22T02:15:14.666Z,84.74
2022-08-22T02:17:54.689Z,84.97
2022-08-22T02:20:44.427Z,84.97
2022-08-22T02:23:52.141Z,84.92
2022-08-22T02:27:05.371Z,84.93
2022-08-22T02:29:52.111Z,85.11
2022-08-22T02:32:26.189Z,85.06
2022-08-22T02:35:11.662Z,85.01
2022-08-22T02:38:00.041Z,85.02
2022-08-22T02:40:36.328Z,84.83
2022-08-22T02:43:22.897Z,85.03
2022-08-22T02:46:38.233Z,85.02
2022-08-22T02:49:30.241Z,84.84
2022-08-22T02:52:24.311Z,84.85
2022-08-22T02:55:04.173Z,85.12
2022-08-22T02:57:45.527Z,84.99
2022-08-22T03:00:31.006Z,85.16
2022-08-22T03:03:24.986Z,84.96
2022-08-22T03:06:04.609Z,85.00
2022-08-22T03:08:42.799Z,85.13
2022-08-22T03:11:19.234Z,85.17
2022-08-22T03:14:03.463Z,85.11
2022-08-22T03:16:41.071Z,85.22
2022-08-22T03:19:18.713Z,85.34
2022-08-22T03:21:52.923Z,85.25
2022-08-22T03:24:25.660Z,85.28
2022-08-22T03:27:31.358Z,85.39
2022-08-22T03:30:20.472Z,85.38
2022-08-22T03:32:59.303Z,85.37
2022-08-22T03:35:50.145Z,85.29
2022-08-22T03:38:37.316Z,85.36
2022-08-22T03:41:32.926Z,85.37
2022-08-22T03:44:44.458Z,85.37
2022-08-22T03:47:30.883Z,85.38
2022-08-22T03:50:09.931Z,85.41
2022-08-22T03:53:18.483Z,85.59
2022-08-22T03:56:24.625Z,85.50
2022-08-22T03:58:53.523Z,85.53
2022-08-22T04:01:58.992Z,85.56
2022-08-22T04:04:50.433Z,85.63
2022-08-22T04:07:56.162Z,85.48
2022-08-22T04:10:39.629Z,85.51
2022-08-22T04:13:34.844Z,85.54
2022-08-22T04:16:41.795Z,85.61
2022-08-22T04:19:32.583Z,85.63
2022-08-22T04:22:41.061Z,85.68
2022-08-22T04:25:23.169Z,85.54
2022-08-22T04:28:27.839Z,85.69
2022-08-22T04:31:22.301Z,85.62
2022-08-22T04:33:54.474Z,85.69
2022-08-22T04:36:36.175Z,85.42
2022-08-22T04:39:22.315Z,85.64
2022-08-22T04:42:10.910Z,85.50
2022-08-22T04:45:15.545Z,85.59
2022-08-22T04:47:54.516Z,85.60
2022-08-22T04:50:29.167Z,85.58
2022-08-22T04:53:38.977Z,85.57
2022-08-22T04:56:16.329Z,85.55
2022-08-22T04:59:09.233Z,85.52
2022-08-22T05:01:45.971Z,85.50
2022-08-22T05:04:26.466Z,85.51
2022-08-22T05:07:03.952Z,85.46
2022-08-22T05:09:36.096Z,85.56
2022-08-22T05:12:12.812Z,85.54
2022-08-22T05:14:47.128Z,85.63
2022-08-22T05:17:21.140Z,85.67
2022-08-22T05:19:56.334Z,85.54
2022-08-22T05:22:30.333Z,85.57
2022-08-22T05:25:08.517Z,85.66
2022-08-22T05:27:47.472Z,85.57
2022-08-22T05:30:22.118Z,85.49
2022-08-22T05:33:08.268Z,85.47
2022-08-22T05:35:51.568Z,85.50
2022-08-22T05:38:25.822Z,85.50
2022-08-22T05:41:12.098Z,85.63
2022-08-22T05:43:45.400Z,85.66
2022-08-22T05:46:31.401Z,85.65
2022-08-22T05:49:02.939Z,85.71
2022-08-22T05:51:38.514Z,85.71
2022-08-22T05:54:15.513Z,85.60
2022-08-22T05:56:57.272Z,85.58
2022-08-22T05:59:33.618Z,85.54
2022-08-22T06:02:25.279Z,85.57
2022-08-22T06:05:01.617Z,85.58
2022-08-22T06:07:41.512Z,85.57
2022-08-22T06:10:41.433Z,85.38
2022-08-22T06:13:31.813Z,85.43
2022-08-22T06:16:22.835Z,85.46
2022-08-22T06:18:52.478Z,85.47
2022-08-22T06:21:35.413Z,85.40
2022-08-22T06:24:13.025Z,85.47
2022-08-22T06:26:48.726Z,85.43
2022-08-22T06:29:50.453Z,85.36
2022-08-22T06:32:52.896Z,85.41
2022-08-22T06:35:55.921Z,85.26
2022-08-22T06:39:16.241Z,85.41
2022-08-22T06:41:54.800Z,85.49
2022-08-22T06:44:31.502Z,85.61
2022-08-22T06:47:23.116Z,85.49
2022-08-22T06:49:59.315Z,85.50
2022-08-22T06:52:32.625Z,85.51
2022-08-22T06:55:06.690Z,85.25
2022-08-22T06:57:56.420Z,85.37
2022-08-22T07:00:26.947Z,85.37
2022-08-22T07:03:09.891Z,85.52
2022-08-22T07:05:42.997Z,85.47
2022-08-22T07:08:20.849Z,85.33
2022-08-22T07:11:25.590Z,85.46
2022-08-22T07:14:24.177Z,85.14
2022-08-22T07:17:01.972Z,84.86
2022-08-22T07:19:45.134Z,84.98
2022-08-22T07:22:24.479Z,84.76
2022-08-22T07:24:59.994Z,84.87
2022-08-22T07:28:14.544Z,84.97
2022-08-22T07:30:59.202Z,84.66
2022-08-22T07:33:47.987Z,84.74
2022-08-22T07:36:32.028Z,84.81
2022-08-22T07:39:18.358Z,84.85
2022-08-22T07:42:06.645Z,84.84
2022-08-22T07:45:07.632Z,84.78
2022-08-22T07:48:10.403Z,84.85
2022-08-22T07:51:17.957Z,84.44
2022-08-22T07:54:06.999Z,84.73
2022-08-22T07:56:51.708Z,84.29
2022-08-22T07:59:23.816Z,84.40
2022-08-22T08:01:56.488Z,84.43
2022-08-22T08:04:30.614Z,84.42
2022-08-22T08:07:03.259Z,84.55
2022-08-22T08:09:44.817Z,84.26
2022-08-22T08:12:15.658Z,84.49
2022-08-22T08:14:46.162Z,84.32
2022-08-22T08:17:21.616Z,84.51
2022-08-22T08:19:54.485Z,84.59
2022-08-22T08:22:26.225Z,84.33
2022-08-22T08:25:00.344Z,84.39
2022-08-22T08:27:51.332Z,83.96
2022-08-22T08:30:35.661Z,84.23
2022-08-22T08:33:24.278Z,84.45
2022-08-22T08:36:05.272Z,84.51
2022-08-22T08:38:48.616Z,84.29
2022-08-22T08:41:41.231Z,84.01
2022-08-22T08:44:46.039Z,84.11
2022-08-22T08:47:25.589Z,83.99
2022-08-22T08:50:11.331Z,83.77
2022-08-22T08:53:10.180Z,83.66
2022-08-22T08:56:06.890Z,84.13
2022-08-22T08:59:02.341Z,84.04
2022-08-22T09:01:40.499Z,83.78
2022-08-22T09:04:29.375Z,83.51
2022-08-22T09:07:09.024Z,83.22
2022-08-22T09:10:14.561Z,83.23
2022-08-22T09:13:12.214Z,83.65
2022-08-22T09:16:10.119Z,83.16
2022-08-22T09:19:07.179Z,83.25
2022-08-22T09:22:15.016Z,83.19
2022-08-22T09:25:08.580Z,83.05
2022-08-22T09:27:54.672Z,82.94
2022-08-22T09:30:48.751Z,82.98
2022-08-22T09:33:30.135Z,83.22
2022-08-22T09:36:12.770Z,83.32
2022-08-22T09:38:59.301Z,83.01
2022-08-22T09:42:00.139Z,82.72
2022-08-22T09:45:15.966Z,83.12
2022-08-22T09:48:02.269Z,82.94
2022-08-22T09:51:01.666Z,82.82
2022-08-22T09:53:53.075Z,82.51
2022-08-22T09:56:26.059Z,82.01
2022-08-22T09:59:03.292Z,81.97
2022-08-22T10:01:52.643Z,81.73
2022-08-22T10:04:44.556Z,82.00
2022-08-22T10:07:42.839Z,82.08
2022-08-22T10:10:21.516Z,82.30
2022-08-22T10:13:17.407Z,82.26
2022-08-22T10:16:03.819Z,82.20
2022-08-22T10:19:13.786Z,82.35
2022-08-22T10:22:14.759Z,82.03
2022-08-22T10:24:55.096Z,81.55
2022-08-22T10:27:47.024Z,81.65
2022-08-22T10:30:30.290Z,81.57
2022-08-22T10:33:16.494Z,81.29
2022-08-22T10:35:50.372Z,80.78
2022-08-22T10:38:26.476Z,80.35
2022-08-22T10:41:17.899Z,80.71
2022-08-22T10:43:56.508Z,80.96
2022-08-22T10:46:38.941Z,80.97
2022-08-22T10:49:28.736Z,81.02
2022-08-22T10:52:15.315Z,80.88
2022-08-22T10:54:51.073Z,81.23
2022-08-22T10:57:52.086Z,81.07
2022-08-22T11:00:50.713Z,81.15
2022-08-22T11:03:40.318Z,81.10
2022-08-22T11:06:37.197Z,81.10
2022-08-22T11:09:34.497Z,80.99
2022-08-22T11:12:37.292Z,81.16
2022-08-22T11:15:47.306Z,81.27
2022-08-22T11:18:23.333Z,80.68
2022-08-22T11:21:37.092Z,80.55
2022-08-22T11:24:53.971Z,81.03
2022-08-22T11:27:40.781Z,80.33
2022-08-22T11:30:29.324Z,80.15
2022-08-22T11:33:10.605Z,79.94
2022-08-22T11:35:53.350Z,80.05
2022-08-22T11:39:01.327Z,79.50
2022-08-22T11:41:58.051Z,79.33
2022-08-22T11:45:16.396Z,79.50
2022-08-22T11:48:02.569Z,79.02
2022-08-22T11:50:42.188Z,78.80
2022-08-22T11:53:38.184Z,79.26
2022-08-22T11:56:34.807Z,78.62
2022-08-22T11:59:22.550Z,78.90
2022-08-22T12:01:56.767Z,78.94
2022-08-22T12:04:53.035Z,77.68
2022-08-22T12:07:29.817Z,78.26
2022-08-22T12:10:03.684Z,77.94
2022-08-22T12:12:37.890Z,77.98
2022-08-22T12:15:15.862Z,77.22
2022-08-22T12:18:09.823Z,77.12
2022-08-22T12:20:56.382Z,77.14
2022-08-22T12:23:43.157Z,77.13
2022-08-22T12:26:38.082Z,76.98
2022-08-22T12:29:34.185Z,76.13
2022-08-22T12:32:49.148Z,76.12
2022-08-22T12:35:38.390Z,76.24
2022-08-22T12:38:36.062Z,75.63
2022-08-22T12:41:13.569Z,75.96
2022-08-22T12:44:20.356Z,76.66
2022-08-22T12:46:58.317Z,76.33
2022-08-22T12:49:50.049Z,76.12
2022-08-22T12:52:50.149Z,75.96
2022-08-22T12:55:56.187Z,76.13
2022-08-22T12:58:51.125Z,75.95
2022-08-22T13:01:20.368Z,75.49
2022-08-22T13:04:02.773Z,75.70
2022-08-22T13:06:33.638Z,75.39
2022-08-22T13:09:09.779Z,75.09
2022-08-22T13:11:43.587Z,75.10
2022-08-22T13:14:19.544Z,74.27
2022-08-22T13:17:01.185Z,75.32
2022-08-22T13:20:14.274Z,75.46
2022-08-22T13:22:47.243Z,74.99
2022-08-22T13:25:25.437Z,75.15
2022-08-22T13:28:03.721Z,75.36
2022-08-22T13:30:41.118Z,75.14
2022-08-22T13:33:30.417Z,75.21
2022-08-22T13:36:10.968Z,75.06
2022-08-22T13:38:52.036Z,74.82
2022-08-22T13:41:32.710Z,75.15
2022-08-22T13:44:06.533Z,74.73
2022-08-22T13:46:52.767Z,74.33
2022-08-22T13:49:45.047Z,74.45
2022-08-22T13:52:38.114Z,74.34
2022-08-22T13:55:19.424Z,74.01
2022-08-22T13:58:11.134Z,74.19
2022-08-22T14:01:06.527Z,74.37
2022-08-22T14:03:45.925Z,74.46
2022-08-22T14:06:41.408Z,74.30
2022-08-22T14:09:54.275Z,74.43
2022-08-22T14:12:33.427Z,74.22
2022-08-22T14:15:24.735Z,74.39
2022-08-22T14:18:30.121Z,74.48
2022-08-22T14:21:40.908Z,74.62
2022-08-22T14:24:25.898Z,74.15
2022-08-22T14:27:05.118Z,73.92
2022-08-22T14:30:12.161Z,73.37
2022-08-22T14:33:13.398Z,73.86
2022-08-22T14:35:51.313Z,73.55
2022-08-22T14:38:34.813Z,73.47
2022-08-22T14:41:07.321Z,73.50
2022-08-22T14:43:56.770Z,73.36
2022-08-22T14:46:35.029Z,73.94
2022-08-22T14:49:44.652Z,74.06
2022-08-22T14:52:25.671Z,73.69
2022-08-22T14:55:15.555Z,73.67
2022-08-22T14:57:51.336Z,73.93
2022-08-22T15:00:49.982Z,74.33
2022-08-22T15:03:34.641Z,73.97
2022-08-22T15:06:07.874Z,73.49
2022-08-22T15:08:42.216Z,73.45
2022-08-22T15:11:34.865Z,73.41
2022-08-22T15:14:25.515Z,73.46
2022-08-22T15:17:05.527Z,72.91
2022-08-22T15:19:35.124Z,73.01
2022-08-22T15:22:25.724Z,72.53
2022-08-22T15:25:18.258Z,72.20
2022-08-22T15:27:53.397Z,72.24
2022-08-22T15:30:36.097Z,71.92
2022-08-22T15:33:30.465Z,71.89
2022-08-22T15:36:15.719Z,71.27
2022-08-22T15:38:48.200Z,70.86
2022-08-22T15:41:24.796Z,71.30
2022-08-22T15:44:33.098Z,71.13
2022-08-22T15:47:31.483Z,70.87
2022-08-22T15:50:09.871Z,70.42
2022-08-22T15:53:11.308Z,70.55
2022-08-22T15:56:12.940Z,70.24
2022-08-22T15:58:49.549Z,70.91
2022-08-22T16:01:43.571Z,70.77
2022-08-22T16:04:38.609Z,70.86
2022-08-22T16:07:27.818Z,70.71
2022-08-22T16:10:37.796Z,70.59
2022-08-22T16:13:33.839Z,70.51
2022-08-22T16:16:08.301Z,71.04
2022-08-22T16:18:43.252Z,70.93
2022-08-22T16:21:23.230Z,70.78
2022-08-22T16:23:54.159Z,70.94
2022-08-22T16:26:29.810Z,70.97
2022-08-22T16:29:07.031Z,70.90
2022-08-22T16:31:42.537Z,71.05
2022-08-22T16:34:19.669Z,70.91
2022-08-22T16:36:56.621Z,70.82
2022-08-22T16:39:24.539Z,70.60
2022-08-22T16:42:12.977Z,70.64
2022-08-22T16:45:05.714Z,70.63
2022-08-22T16:47:35.953Z,70.77
2022-08-22T16:50:15.930Z,70.68
2022-08-22T16:53:10.365Z,70.57
2022-08-22T16:55:49.867Z,70.79
2022-08-22T16:58:56.195Z,70.82
2022-08-22T17:02:08.103Z,70.72
2022-08-22T17:04:44.330Z,70.89
2022-08-22T17:07:53.301Z,70.58
2022-08-22T17:10:42.176Z,70.65
2022-08-22T17:13:29.961Z,70.88
2022-08-22T17:16:31.801Z,71.05
2022-08-22T17:19:23.391Z,71.02
2022-08-22T17:21:59.660Z,71.07
2022-08-22T17:24:40.865Z,71.16
2022-08-22T17:27:21.359Z,71.32
2022-08-22T17:30:28.573Z,71.34
2022-08-22T17:33:11.388Z,71.52
2022-08-22T17:36:26.344Z,71.68
2022-08-22T17:39:23.145Z,71.74
2022-08-22T17:42:10.023Z,71.83
2022-08-22T17:45:14.085Z,71.90
2022-08-22T17:47:51.626Z,72.01
2022-08-22T17:50:38.965Z,72.06
2022-08-22T17:53:26.747Z,72.12
2022-08-22T17:55:54.954Z,72.22
2022-08-22T17:58:43.341Z,72.15
2022-08-22T18:01:36.925Z,72.33
2022-08-22T18:04:08.129Z,72.34
2022-08-22T18:06:47.477Z,72.38
2022-08-22T18:09:39.867Z,72.48
2022-08-22T18:12:34.321Z,72.48
2022-08-22T18:15:14.210Z,72.41
2022-08-22T18:18:00.264Z,72.51
2022-08-22T18:20:46.495Z,72.52
2022-08-22T18:23:35.710Z,72.45
2022-08-22T18:26:18.627Z,72.52
2022-08-22T18:29:15.993Z,72.56
2022-08-22T18:32:36.012Z,72.65
2022-08-22T18:38:39.887Z,72.92
2022-08-22T18:41:51.886Z,72.98
2022-08-22T18:44:34.674Z,72.92
2022-08-22T18:47:40.419Z,72.98
2022-08-22T18:50:33.966Z,73.01
2022-08-22T18:53:03.055Z,73.00
2022-08-22T18:55:58.587Z,73.17
2022-08-22T18:58:37.920Z,73.25
2022-08-22T19:01:24.526Z,73.34
2022-08-22T19:04:21.889Z,73.41
2022-08-22T19:07:12.707Z,73.39
2022-08-22T19:10:07.926Z,73.49
2022-08-22T19:13:04.912Z,73.51
2022-08-22T19:16:02.339Z,73.68
2022-08-22T19:19:04.916Z,73.68
2022-08-22T19:22:09.040Z,73.83
2022-08-22T19:31:42.871Z,74.05
2022-08-22T19:38:55.441Z,74.10
2022-08-22T19:41:57.655Z,74.16
2022-08-22T19:44:26.462Z,74.21
2022-08-22T19:47:31.925Z,74.22
2022-08-22T19:50:05.489Z,74.30
2022-08-22T19:53:11.077Z,74.46
2022-08-22T19:55:40.116Z,74.50
2022-08-22T19:58:31.016Z,74.52
2022-08-22T20:01:09.793Z,74.56
2022-08-22T20:03:43.767Z,74.59
2022-08-22T20:06:43.907Z,74.75
2022-08-22T20:09:59.333Z,74.73
2022-08-22T20:13:05.733Z,74.75
2022-08-22T20:16:15.420Z,74.86
2022-08-22T20:19:18.951Z,74.88
2022-08-22T20:21:54.583Z,74.91
2022-08-22T20:24:39.560Z,74.97
2022-08-22T20:27:35.974Z,74.99
2022-08-22T20:30:58.257Z,75.02
2022-08-22T20:33:57.818Z,75.16
2022-08-22T20:36:39.412Z,75.10
2022-08-22T20:39:25.276Z,75.27
2022-08-22T20:42:04.949Z,75.30
2022-08-22T20:44:40.808Z,75.32
2022-08-22T20:47:25.927Z,75.33
2022-08-22T20:50:07.448Z,75.47
2022-08-22T20:52:54.435Z,75.56
2022-08-22T20:55:32.085Z,75.55
2022-08-22T20:58:20.737Z,75.54
2022-08-22T21:01:15.363Z,75.69
2022-08-22T21:04:33.031Z,75.78
2022-08-22T21:07:26.934Z,75.84
2022-08-22T21:10:42.040Z,75.96
2022-08-22T21:13:42.608Z,75.98
2022-08-22T21:16:35.146Z,76.08
2022-08-22T21:19:48.954Z,76.21
2022-08-22T21:22:38.892Z,76.24
2022-08-22T21:25:27.369Z,76.47
2022-08-22T21:28:20.241Z,76.39
2022-08-22T21:31:20.500Z,76.46
2022-08-22T21:34:11.636Z,76.46
2022-08-22T21:36:59.038Z,76.54
2022-08-22T21:39:54.079Z,76.50
2022-08-22T21:43:03.009Z,76.69
2022-08-22T21:45:55.317Z,76.75
2022-08-22T21:48:48.309Z,76.75
2022-08-22T21:51:46.666Z,76.86
2022-08-22T21:54:43.775Z,76.84
2022-08-22T21:57:36.436Z,76.98
2022-08-22T22:00:33.064Z,76.96
2022-08-22T22:03:12.708Z,77.05
2022-08-22T22:06:09.047Z,77.10
2022-08-22T22:08:49.543Z,77.16
2022-08-22T22:12:47.669Z,77.30
2022-08-22T22:18:02.214Z,77.39
2022-08-22T22:21:58.748Z,77.48
2022-08-22T22:25:55.422Z,77.55
2022-08-22T22:29:11.228Z,77.65
2022-08-22T22:31:49.431Z,77.57
2022-08-22T22:34:22.187Z,77.50
2022-08-22T22:37:18.309Z,78.02
2022-08-22T22:40:09.746Z,78.42
2022-08-22T22:42:49.788Z,78.52
2022-08-22T22:45:32.778Z,78.52
2022-08-22T22:48:24.542Z,78.74
2022-08-22T22:51:06.587Z,78.72
2022-08-22T22:53:47.147Z,78.86
2022-08-22T22:56:29.811Z,78.95
2022-08-22T22:59:30.323Z,79.07
2022-08-22T23:02:23.843Z,79.22
2022-08-22T23:05:05.447Z,79.42
2022-08-22T23:08:06.939Z,79.45
2022-08-22T23:10:54.101Z,79.69
2022-08-22T23:13:49.059Z,79.85
2022-08-22T23:16:48.760Z,79.85
2022-08-22T23:19:38.600Z,79.91
2022-08-22T23:22:44.858Z,79.94
2022-08-22T23:25:32.355Z,80.03
2022-08-22T23:28:18.787Z,80.19
2022-08-22T23:30:57.390Z,80.19
2022-08-22T23:33:57.077Z,80.25
2022-08-22T23:36:47.262Z,80.42
2022-08-22T23:39:41.466Z,80.51
2022-08-22T23:42:30.075Z,80.64
2022-08-22T23:45:10.672Z,80.60
2022-08-22T23:48:03.104Z,80.72
2022-08-22T23:51:00.429Z,80.64
2022-08-22T23:53:43.307Z,80.79
2022-08-22T23:56:38.314Z,80.76
2022-08-22T23:59:30.842Z,80.84
